HNL weather

Daniel K Inouye International Airport
Honolulu, Hawaii, United States

Public forecast

Using degrees Fahrenheit for public forecast. Weather courtesy of forecast.io.

METAR (pilot weather report)

Retrieved 2018/10/17 01:53 UTC (41 minutes ago):

PHNL 170153Z 03010G20KT 10SM FEW025 FEW040 SCT055 29/18 A2993

TAF (pilot weather forecast)

Retrieved 2018/10/17 03:36 UTC (0 seconds ago):

TAF PHNL 170234Z 1703/1806 05012G20KT P6SM FEW025 SCT050 FM170600 02008KT P6SM FEW025 SCT050 FM172100 05012G20KT P6SM FEW035 SCT060